createdAt,value
2023-06-30T00:01:05.123Z,69.74
2023-06-30T00:03:46.833Z,69.58
2023-06-30T00:06:15.426Z,69.65
2023-06-30T00:08:43.079Z,69.63
2023-06-30T00:11:10.935Z,69.55
2023-06-30T00:13:38.644Z,69.80
2023-06-30T00:16:06.386Z,69.65
2023-06-30T00:18:34.118Z,69.65
2023-06-30T00:21:02.526Z,69.61
2023-06-30T00:23:30.201Z,69.76
2023-06-30T00:25:57.857Z,70.11
2023-06-30T00:28:25.538Z,69.86
2023-06-30T00:30:53.222Z,69.56
2023-06-30T00:33:20.937Z,69.63
2023-06-30T00:35:48.565Z,69.59
2023-06-30T00:38:16.363Z,69.52
2023-06-30T00:40:44.090Z,69.89
2023-06-30T00:43:11.885Z,70.07
2023-06-30T00:45:39.705Z,70.14
2023-06-30T00:48:07.570Z,69.82
2023-06-30T00:50:37.992Z,69.94
2023-06-30T00:53:05.657Z,70.03
2023-06-30T00:55:33.478Z,70.04
2023-06-30T00:58:01.148Z,69.99
2023-06-30T01:00:28.773Z,70.19
2023-06-30T01:03:02.685Z,70.43
2023-06-30T01:05:55.769Z,70.16
2023-06-30T01:08:26.585Z,70.53
2023-06-30T01:10:54.432Z,70.39
2023-06-30T01:13:22.254Z,70.33
2023-06-30T01:15:50.113Z,70.32
2023-06-30T01:18:21.020Z,70.42
2023-06-30T01:20:49.452Z,70.55
2023-06-30T01:23:18.782Z,70.82
2023-06-30T01:25:47.527Z,70.89
2023-06-30T01:28:15.377Z,70.93
2023-06-30T01:30:43.235Z,70.81
2023-06-30T01:33:11.838Z,70.99
2023-06-30T01:35:39.507Z,70.89
2023-06-30T01:38:07.282Z,71.31
2023-06-30T01:40:34.926Z,70.93
2023-06-30T01:43:02.563Z,71.14
2023-06-30T01:45:30.293Z,71.15
2023-06-30T01:47:58.214Z,71.43
2023-06-30T01:50:29.439Z,71.43
2023-06-30T01:52:58.325Z,71.16
2023-06-30T01:55:27.142Z,70.94
2023-06-30T01:57:54.805Z,71.26
2023-06-30T02:00:22.507Z,71.21
2023-06-30T02:02:50.302Z,71.05
2023-06-30T02:05:18.175Z,71.23
2023-06-30T02:07:46.031Z,71.31
2023-06-30T02:10:14.261Z,71.19
2023-06-30T02:12:41.949Z,71.12
2023-06-30T02:15:10.413Z,71.20
2023-06-30T02:17:38.294Z,71.13
2023-06-30T02:20:07.527Z,70.95
2023-06-30T02:22:35.309Z,71.36
2023-06-30T02:25:03.231Z,71.19
2023-06-30T02:27:33.076Z,71.36
2023-06-30T02:30:06.265Z,71.48
2023-06-30T02:32:39.237Z,71.73
2023-06-30T02:35:08.277Z,71.90
2023-06-30T02:37:36.703Z,71.74
2023-06-30T02:40:05.799Z,71.51
2023-06-30T02:42:33.509Z,71.58
2023-06-30T02:45:01.499Z,71.61
2023-06-30T02:47:29.216Z,71.74
2023-06-30T02:49:56.978Z,71.55
2023-06-30T02:52:24.744Z,71.56
2023-06-30T02:54:52.373Z,71.63
2023-06-30T02:57:20.627Z,71.52
2023-06-30T02:59:48.371Z,71.70
2023-06-30T03:02:16.426Z,71.65
2023-06-30T03:04:44.336Z,71.80
2023-06-30T03:07:12.280Z,72.11
2023-06-30T03:09:39.951Z,72.18
2023-06-30T03:12:08.222Z,72.18
2023-06-30T03:14:36.071Z,72.13
2023-06-30T03:17:04.066Z,72.01
2023-06-30T03:19:31.839Z,72.12
2023-06-30T03:22:00.144Z,72.31
2023-06-30T03:24:27.776Z,72.46
2023-06-30T03:26:55.624Z,72.53
2023-06-30T03:29:23.527Z,72.70
2023-06-30T03:31:51.271Z,72.92
2023-06-30T03:34:18.962Z,72.86
2023-06-30T03:36:46.616Z,72.79
2023-06-30T03:39:14.630Z,73.42
2023-06-30T03:41:42.742Z,73.44
2023-06-30T03:44:12.348Z,73.57
2023-06-30T03:46:40.023Z,73.67
2023-06-30T03:49:07.742Z,73.61
2023-06-30T03:51:35.480Z,73.58
2023-06-30T03:54:03.249Z,73.84
2023-06-30T03:56:31.074Z,73.78
2023-06-30T03:58:58.746Z,73.95
2023-06-30T04:01:27.328Z,74.42
2023-06-30T04:03:55.342Z,74.49
2023-06-30T04:06:23.355Z,74.95
2023-06-30T04:08:51.113Z,74.74
2023-06-30T04:11:18.893Z,75.00
2023-06-30T04:13:47.965Z,74.98
2023-06-30T04:16:15.643Z,75.00
2023-06-30T04:18:43.274Z,75.12
2023-06-30T04:21:11.398Z,75.04
2023-06-30T04:23:39.034Z,75.05
2023-06-30T04:26:06.680Z,74.69
2023-06-30T04:28:34.385Z,74.12
2023-06-30T04:31:04.607Z,73.45
2023-06-30T04:33:33.859Z,72.75
2023-06-30T04:36:02.028Z,72.30
2023-06-30T04:38:29.799Z,71.60
2023-06-30T04:40:57.811Z,71.23
2023-06-30T04:43:25.760Z,71.08
2023-06-30T04:45:53.844Z,70.78
2023-06-30T04:48:21.549Z,70.26
2023-06-30T04:50:49.474Z,69.88
2023-06-30T04:53:17.322Z,69.41
2023-06-30T04:55:45.311Z,69.12
2023-06-30T04:58:13.479Z,68.84
2023-06-30T05:00:41.980Z,68.67
2023-06-30T05:03:09.966Z,68.29
2023-06-30T05:05:37.913Z,67.94
2023-06-30T05:08:06.076Z,67.38
2023-06-30T05:10:33.820Z,66.98
2023-06-30T05:13:01.505Z,66.70
2023-06-30T05:15:29.430Z,66.25
2023-06-30T05:17:57.151Z,66.32
2023-06-30T05:20:24.840Z,65.84
2023-06-30T05:22:52.517Z,65.65
2023-06-30T05:25:20.169Z,65.53
2023-06-30T05:27:47.937Z,64.94
2023-06-30T05:30:15.827Z,64.54
2023-06-30T05:32:43.503Z,64.13
2023-06-30T05:35:11.239Z,64.08
2023-06-30T05:37:38.892Z,63.80
2023-06-30T05:40:07.219Z,63.18
2023-06-30T05:42:34.869Z,63.58
2023-06-30T05:45:02.736Z,63.34
2023-06-30T05:47:30.427Z,62.72
2023-06-30T05:49:58.138Z,62.40
2023-06-30T05:52:26.391Z,62.16
2023-06-30T05:54:54.233Z,62.52
2023-06-30T05:57:22.073Z,61.58
2023-06-30T05:59:49.849Z,61.02
2023-06-30T06:02:17.589Z,60.90
2023-06-30T06:04:45.528Z,60.66
2023-06-30T06:07:13.469Z,60.18
2023-06-30T06:09:41.192Z,59.78
2023-06-30T06:12:10.708Z,59.22
2023-06-30T06:14:38.359Z,59.44
2023-06-30T06:17:06.395Z,58.96
2023-06-30T06:19:34.162Z,58.60
2023-06-30T06:22:02.144Z,58.47
2023-06-30T06:24:29.831Z,58.68
2023-06-30T06:26:57.505Z,58.96
2023-06-30T06:29:25.534Z,58.23
2023-06-30T06:31:53.341Z,58.11
2023-06-30T06:34:21.356Z,58.16
2023-06-30T06:36:49.294Z,58.64
2023-06-30T06:39:17.031Z,57.93
2023-06-30T06:41:46.111Z,57.66
2023-06-30T06:44:13.910Z,57.73
2023-06-30T06:46:42.149Z,57.77
2023-06-30T06:49:10.547Z,57.77
2023-06-30T06:51:38.242Z,57.85
2023-06-30T06:54:06.108Z,57.95
2023-06-30T06:56:33.865Z,57.80
2023-06-30T06:59:01.521Z,58.08
2023-06-30T07:01:29.294Z,57.59
2023-06-30T07:03:57.029Z,56.92
2023-06-30T07:06:24.686Z,57.04
2023-06-30T07:08:52.514Z,57.21
2023-06-30T07:11:20.154Z,56.57
2023-06-30T07:13:47.820Z,56.70
2023-06-30T07:16:19.113Z,57.05
2023-06-30T07:18:47.139Z,56.95
2023-06-30T07:21:14.841Z,56.21
2023-06-30T07:23:42.504Z,55.34
2023-06-30T07:26:10.867Z,55.41
2023-06-30T07:28:38.532Z,55.22
2023-06-30T07:31:06.412Z,55.18
2023-06-30T07:33:34.161Z,55.44
2023-06-30T07:36:01.813Z,55.27
2023-06-30T07:38:29.480Z,54.55
2023-06-30T07:40:57.902Z,53.98
2023-06-30T07:43:26.806Z,54.58
2023-06-30T07:45:54.581Z,54.41
2023-06-30T07:48:22.585Z,53.45
2023-06-30T07:51:03.323Z,52.42
2023-06-30T07:53:36.678Z,52.01
2023-06-30T07:56:04.593Z,51.94
2023-06-30T07:58:32.542Z,51.79
2023-06-30T08:01:00.434Z,51.84
2023-06-30T08:03:28.289Z,51.06
2023-06-30T08:05:57.759Z,50.82
2023-06-30T08:08:25.679Z,50.49
2023-06-30T08:10:53.324Z,49.84
2023-06-30T08:13:20.980Z,49.19
2023-06-30T08:15:49.780Z,49.98
2023-06-30T08:18:31.548Z,49.81
2023-06-30T08:21:02.501Z,49.97
2023-06-30T08:23:30.313Z,50.34
2023-06-30T08:25:57.991Z,49.75
2023-06-30T08:28:25.652Z,49.55
2023-06-30T08:30:53.444Z,49.29
2023-06-30T08:36:01.081Z,48.24
2023-06-30T08:38:28.853Z,47.78
2023-06-30T08:40:56.572Z,47.36
2023-06-30T08:43:24.312Z,46.52
2023-06-30T08:45:54.185Z,46.81
2023-06-30T08:48:21.941Z,45.39
2023-06-30T08:50:50.886Z,44.54
2023-06-30T08:53:18.612Z,45.47
2023-06-30T08:55:47.437Z,45.69
2023-06-30T08:58:25.547Z,45.10
2023-06-30T09:00:54.848Z,44.54
2023-06-30T09:03:22.984Z,44.56
2023-06-30T09:05:55.932Z,43.76
2023-06-30T09:08:25.105Z,44.17
2023-06-30T09:10:52.862Z,44.07
2023-06-30T09:13:22.297Z,43.49
2023-06-30T09:15:50.219Z,42.99
2023-06-30T09:18:18.002Z,43.06
2023-06-30T09:20:45.722Z,42.54
2023-06-30T09:23:13.382Z,42.95
2023-06-30T09:25:41.357Z,42.11
2023-06-30T09:28:11.608Z,42.24
2023-06-30T09:30:41.919Z,41.12
2023-06-30T09:33:10.059Z,42.07
2023-06-30T09:35:39.652Z,42.60
2023-06-30T09:38:11.061Z,42.73
2023-06-30T09:40:38.829Z,43.21
2023-06-30T09:43:07.598Z,43.14
2023-06-30T09:45:35.858Z,43.55
2023-06-30T09:48:05.347Z,41.53
2023-06-30T09:50:35.011Z,41.11
2023-06-30T09:53:02.667Z,40.44
2023-06-30T09:55:30.340Z,39.25
2023-06-30T09:57:58.164Z,39.15
2023-06-30T10:00:36.499Z,38.69
2023-06-30T10:03:06.923Z,38.80
2023-06-30T10:05:34.888Z,37.99
2023-06-30T10:08:02.608Z,37.92
2023-06-30T10:10:30.423Z,37.40
2023-06-30T10:13:01.085Z,37.12
2023-06-30T10:15:28.796Z,36.18
2023-06-30T10:17:58.503Z,36.24
2023-06-30T10:20:34.458Z,36.49
2023-06-30T10:23:14.482Z,36.87
2023-06-30T10:25:42.173Z,36.50
2023-06-30T10:28:09.933Z,37.17
2023-06-30T10:30:37.836Z,36.46
2023-06-30T10:33:05.657Z,36.05
2023-06-30T10:35:33.672Z,35.71
2023-06-30T10:38:01.373Z,34.63
2023-06-30T10:40:30.838Z,34.76
2023-06-30T10:42:59.166Z,34.44
2023-06-30T10:45:31.881Z,34.03
2023-06-30T10:47:59.745Z,35.21
2023-06-30T10:50:27.443Z,34.84
2023-06-30T10:52:55.303Z,35.08
2023-06-30T10:55:24.089Z,35.34
2023-06-30T10:57:52.913Z,35.01
2023-06-30T11:00:22.956Z,34.32
2023-06-30T11:02:54.200Z,34.03
2023-06-30T11:05:32.019Z,33.46
2023-06-30T11:08:03.074Z,32.56
2023-06-30T11:10:35.990Z,32.62
2023-06-30T11:13:10.370Z,32.57
2023-06-30T11:15:51.579Z,33.35
2023-06-30T11:18:22.695Z,33.30
2023-06-30T11:21:04.502Z,32.80
2023-06-30T11:23:40.123Z,31.51
2023-06-30T11:26:16.120Z,31.37
2023-06-30T11:28:45.556Z,31.68
2023-06-30T11:31:13.515Z,30.94
2023-06-30T11:33:44.717Z,30.88
2023-06-30T11:36:19.325Z,31.70
2023-06-30T11:38:51.603Z,31.13
2023-06-30T11:41:20.326Z,30.57
2023-06-30T11:43:51.957Z,31.97
2023-06-30T11:46:19.738Z,31.16
2023-06-30T11:48:48.514Z,31.73
2023-06-30T11:51:17.606Z,32.47
2023-06-30T11:53:48.254Z,32.52
2023-06-30T11:56:19.843Z,31.74
2023-06-30T11:58:51.270Z,31.64
2023-06-30T12:01:21.446Z,32.94
2023-06-30T12:04:00.575Z,32.45
2023-06-30T12:06:29.522Z,32.45
2023-06-30T12:08:58.534Z,31.88
2023-06-30T12:11:26.206Z,31.86
2023-06-30T12:13:53.857Z,31.15
2023-06-30T12:16:21.889Z,31.46
2023-06-30T12:18:49.558Z,30.67
2023-06-30T12:21:17.207Z,30.66
2023-06-30T12:23:45.209Z,31.01
2023-06-30T12:26:13.277Z,29.14
2023-06-30T12:28:42.448Z,28.41
2023-06-30T12:31:10.251Z,28.53
2023-06-30T12:33:38.305Z,27.18
2023-06-30T12:36:07.531Z,26.69
2023-06-30T12:38:35.313Z,27.46
2023-06-30T12:41:04.375Z,26.82
2023-06-30T12:43:34.397Z,26.55
2023-06-30T12:46:02.426Z,25.89
2023-06-30T12:48:30.218Z,25.79
2023-06-30T12:50:59.129Z,25.20
2023-06-30T12:53:26.901Z,25.19
2023-06-30T12:55:54.711Z,25.24
2023-06-30T12:58:22.472Z,25.74
2023-06-30T13:00:54.348Z,25.15
2023-06-30T13:03:22.110Z,26.65
2023-06-30T13:05:52.139Z,25.98
2023-06-30T13:08:19.851Z,27.30
2023-06-30T13:10:49.516Z,27.32
2023-06-30T13:13:18.431Z,26.31
2023-06-30T13:15:46.267Z,26.52
2023-06-30T13:18:16.036Z,25.95
2023-06-30T13:20:45.950Z,26.48
2023-06-30T13:23:20.449Z,26.66
2023-06-30T13:25:59.700Z,26.59
2023-06-30T13:28:27.365Z,26.25
2023-06-30T13:30:55.030Z,26.64
2023-06-30T13:33:23.092Z,27.39
2023-06-30T13:35:50.770Z,28.09
2023-06-30T13:38:19.294Z,27.21
2023-06-30T13:40:47.259Z,27.34
2023-06-30T13:43:15.601Z,27.83
2023-06-30T13:45:43.828Z,27.59
2023-06-30T13:48:11.768Z,27.52
2023-06-30T13:50:39.944Z,26.86
2023-06-30T13:53:07.669Z,26.19
2023-06-30T13:55:36.344Z,25.97
2023-06-30T13:58:04.265Z,25.71
2023-06-30T14:00:32.047Z,24.71
2023-06-30T14:02:59.882Z,24.82
2023-06-30T14:05:27.846Z,25.55
2023-06-30T14:07:55.856Z,26.63
2023-06-30T14:10:23.532Z,26.88
2023-06-30T14:12:51.246Z,27.15
2023-06-30T14:15:20.810Z,27.78
2023-06-30T14:17:48.884Z,28.23
2023-06-30T14:20:16.604Z,29.02
2023-06-30T14:22:44.227Z,29.84
2023-06-30T14:25:20.388Z,29.57
2023-06-30T14:27:48.346Z,30.20
2023-06-30T14:30:16.324Z,30.47
2023-06-30T14:32:44.311Z,30.28
2023-06-30T14:35:12.344Z,31.13
2023-06-30T14:37:40.006Z,31.34
2023-06-30T14:40:08.222Z,31.73
2023-06-30T14:42:35.940Z,31.74
2023-06-30T14:45:04.699Z,32.09
2023-06-30T14:47:32.461Z,32.36
2023-06-30T14:50:00.139Z,32.33
2023-06-30T14:52:27.796Z,32.50
2023-06-30T14:54:55.608Z,32.52
2023-06-30T14:57:23.783Z,32.03
2023-06-30T14:59:51.417Z,31.53
2023-06-30T15:02:20.240Z,32.12
2023-06-30T15:04:49.677Z,31.84
2023-06-30T15:07:17.442Z,31.48
2023-06-30T15:09:45.136Z,31.84
2023-06-30T15:12:12.882Z,32.25
2023-06-30T15:14:40.637Z,32.56
2023-06-30T15:17:08.282Z,32.86
2023-06-30T15:19:36.156Z,33.34
2023-06-30T15:22:03.862Z,32.71
2023-06-30T15:24:31.686Z,33.09
2023-06-30T15:26:59.347Z,33.38
2023-06-30T15:29:27.011Z,33.86
2023-06-30T15:31:55.439Z,34.35
2023-06-30T15:34:23.347Z,34.72
2023-06-30T15:36:51.026Z,34.68
2023-06-30T15:39:18.691Z,35.16
2023-06-30T15:41:46.323Z,35.57
2023-06-30T15:44:14.000Z,34.79
2023-06-30T15:46:41.885Z,33.83
2023-06-30T15:49:09.612Z,34.34
2023-06-30T15:51:37.403Z,34.66
2023-06-30T15:54:05.370Z,35.25
2023-06-30T15:56:33.264Z,35.55
2023-06-30T15:59:01.326Z,35.02
2023-06-30T16:01:30.011Z,35.60
2023-06-30T16:03:57.823Z,36.53
2023-06-30T16:06:25.795Z,36.59
2023-06-30T16:08:53.621Z,35.96
2023-06-30T16:11:21.382Z,36.06
2023-06-30T16:13:49.033Z,36.47
2023-06-30T16:16:16.749Z,36.81
2023-06-30T16:18:45.561Z,37.33
2023-06-30T16:21:13.240Z,37.51
2023-06-30T16:23:41.117Z,37.90
2023-06-30T16:26:09.082Z,37.95
2023-06-30T16:28:37.052Z,37.87
2023-06-30T16:31:05.161Z,38.65
2023-06-30T16:33:33.049Z,38.25
2023-06-30T16:36:00.853Z,38.48
2023-06-30T16:38:29.053Z,38.75
2023-06-30T16:40:56.764Z,38.03
2023-06-30T16:43:25.317Z,38.73
2023-06-30T16:45:55.296Z,40.24
2023-06-30T16:48:23.058Z,38.50
2023-06-30T16:50:50.660Z,39.83
2023-06-30T16:53:18.770Z,40.98
2023-06-30T16:55:46.868Z,39.92
2023-06-30T16:58:15.178Z,39.88
2023-06-30T17:00:43.189Z,41.22
2023-06-30T17:03:11.169Z,41.03
2023-06-30T17:05:38.880Z,41.88
2023-06-30T17:08:06.817Z,41.75
2023-06-30T17:10:34.579Z,41.78
2023-06-30T17:13:04.394Z,42.57
2023-06-30T17:15:32.716Z,42.81
2023-06-30T17:18:00.424Z,43.43
2023-06-30T17:20:29.051Z,43.78
2023-06-30T17:22:56.945Z,44.48
2023-06-30T17:25:24.645Z,44.60
2023-06-30T17:27:52.316Z,45.03
2023-06-30T17:30:20.286Z,45.82
2023-06-30T17:32:48.106Z,46.53
2023-06-30T17:35:15.915Z,46.75
2023-06-30T17:37:43.569Z,46.23
2023-06-30T17:40:11.669Z,46.19
2023-06-30T17:42:39.340Z,46.04
2023-06-30T17:45:07.500Z,45.90
2023-06-30T17:47:35.164Z,46.15
2023-06-30T17:50:03.032Z,46.45
2023-06-30T17:52:31.031Z,46.61
2023-06-30T17:54:58.783Z,46.70
2023-06-30T17:57:26.404Z,46.88
2023-06-30T17:59:54.154Z,46.98
2023-06-30T18:02:22.016Z,47.47
2023-06-30T18:04:50.290Z,47.77
2023-06-30T18:07:19.552Z,47.46
2023-06-30T18:09:47.912Z,46.88
2023-06-30T18:12:15.695Z,46.98
2023-06-30T18:14:43.927Z,46.11
2023-06-30T18:17:11.734Z,45.64
2023-06-30T18:19:40.235Z,45.92
2023-06-30T18:22:08.999Z,46.25
2023-06-30T18:24:36.677Z,46.68
2023-06-30T18:27:04.874Z,46.67
2023-06-30T18:29:32.769Z,46.85
2023-06-30T18:32:00.993Z,47.41
2023-06-30T18:34:28.950Z,47.54
2023-06-30T18:36:56.639Z,47.97
2023-06-30T18:39:24.297Z,48.28
2023-06-30T18:41:51.970Z,48.61
2023-06-30T18:44:19.821Z,48.87
2023-06-30T18:46:48.332Z,49.15
2023-06-30T18:49:16.084Z,49.31
2023-06-30T18:51:44.110Z,49.57
2023-06-30T18:54:12.002Z,49.80
2023-06-30T18:56:39.644Z,49.99
2023-06-30T18:59:07.505Z,50.20
2023-06-30T19:01:35.304Z,50.22
2023-06-30T19:04:03.451Z,50.57
2023-06-30T19:06:31.457Z,50.84
2023-06-30T19:08:59.466Z,51.11
2023-06-30T19:11:27.139Z,51.36
2023-06-30T19:13:54.775Z,51.85
2023-06-30T19:16:22.454Z,52.27
2023-06-30T19:18:50.743Z,52.47
2023-06-30T19:21:18.422Z,53.00
2023-06-30T19:23:46.055Z,53.23
2023-06-30T19:26:13.838Z,53.76
2023-06-30T19:28:41.873Z,54.30
2023-06-30T19:31:09.646Z,54.57
2023-06-30T19:33:38.154Z,55.03
2023-06-30T19:36:06.359Z,55.28
2023-06-30T19:38:34.215Z,55.36
2023-06-30T19:41:01.953Z,55.80
2023-06-30T19:43:29.831Z,56.19
2023-06-30T19:45:57.517Z,56.24
2023-06-30T19:48:25.187Z,56.63
2023-06-30T19:50:53.047Z,56.72
2023-06-30T19:53:20.773Z,56.97
2023-06-30T19:55:49.199Z,56.88
2023-06-30T19:58:17.215Z,57.35
2023-06-30T20:00:44.945Z,57.45
2023-06-30T20:03:12.875Z,57.52
2023-06-30T20:05:40.585Z,57.53
2023-06-30T20:08:08.252Z,58.17
2023-06-30T20:10:35.879Z,58.44
2023-06-30T20:13:04.487Z,58.78
2023-06-30T20:15:33.335Z,58.90
2023-06-30T20:18:01.082Z,58.73
2023-06-30T20:20:29.089Z,58.55
2023-06-30T20:22:56.821Z,58.48
2023-06-30T20:25:24.794Z,58.43
2023-06-30T20:27:52.868Z,58.36
2023-06-30T20:30:21.249Z,58.58
2023-06-30T20:32:48.921Z,58.62
2023-06-30T20:35:20.075Z,58.65
2023-06-30T20:37:47.959Z,58.95
2023-06-30T20:40:15.930Z,59.29
2023-06-30T20:42:43.866Z,59.54
2023-06-30T20:45:11.588Z,59.75
2023-06-30T20:47:40.235Z,60.05
2023-06-30T20:50:09.420Z,60.38
2023-06-30T20:52:37.371Z,61.09
2023-06-30T20:55:05.583Z,62.09
2023-06-30T20:57:33.396Z,62.71
2023-06-30T21:00:01.070Z,63.26
2023-06-30T21:02:28.939Z,63.94
2023-06-30T21:04:59.011Z,64.34
2023-06-30T21:07:26.865Z,64.74
2023-06-30T21:09:54.484Z,65.50
2023-06-30T21:12:22.162Z,65.68
2023-06-30T21:14:50.010Z,66.29
2023-06-30T21:17:18.465Z,66.65
2023-06-30T21:19:46.861Z,66.89
2023-06-30T21:22:14.633Z,67.15
2023-06-30T21:24:42.260Z,67.38
2023-06-30T21:27:11.339Z,67.93
2023-06-30T21:29:39.486Z,68.04
2023-06-30T21:32:08.252Z,68.09
2023-06-30T21:34:36.586Z,67.95
2023-06-30T21:37:04.581Z,67.95
2023-06-30T21:39:32.206Z,68.16
2023-06-30T21:41:59.928Z,68.24
2023-06-30T21:44:27.647Z,68.09
2023-06-30T21:46:55.291Z,68.42
2023-06-30T21:49:22.917Z,68.65
2023-06-30T21:51:50.685Z,68.96
2023-06-30T21:54:27.113Z,69.11
2023-06-30T21:56:59.224Z,69.29
2023-06-30T21:59:26.860Z,69.44
2023-06-30T22:01:54.533Z,69.28
2023-06-30T22:04:22.247Z,69.47
2023-06-30T22:06:49.968Z,69.61
2023-06-30T22:09:17.625Z,69.63
2023-06-30T22:11:45.421Z,69.60
2023-06-30T22:14:13.578Z,69.74
2023-06-30T22:16:41.636Z,69.77
2023-06-30T22:19:09.726Z,69.78
2023-06-30T22:21:37.406Z,69.77
2023-06-30T22:24:05.401Z,70.00
2023-06-30T22:26:33.014Z,70.29
2023-06-30T22:29:00.674Z,70.12
2023-06-30T22:31:28.452Z,70.20
2023-06-30T22:33:56.203Z,70.24
2023-06-30T22:36:23.839Z,70.28
2023-06-30T22:38:52.322Z,70.32
2023-06-30T22:41:20.315Z,70.17
2023-06-30T22:43:48.708Z,70.16
2023-06-30T22:46:16.323Z,70.31
2023-06-30T22:48:44.426Z,70.40
2023-06-30T22:51:12.860Z,70.66
2023-06-30T22:53:40.517Z,70.76
2023-06-30T22:56:08.365Z,70.58
2023-06-30T22:58:36.163Z,70.79
2023-06-30T23:01:03.888Z,70.77
2023-06-30T23:03:31.835Z,70.76
2023-06-30T23:05:59.588Z,70.70
2023-06-30T23:08:27.288Z,70.80
2023-06-30T23:10:54.980Z,70.77
2023-06-30T23:13:22.615Z,70.81
2023-06-30T23:15:50.279Z,71.00
2023-06-30T23:18:20.441Z,71.00
2023-06-30T23:20:48.734Z,71.07
2023-06-30T23:23:16.731Z,71.25
2023-06-30T23:25:44.575Z,71.29
2023-06-30T23:28:12.244Z,71.19
2023-06-30T23:30:41.175Z,71.19
2023-06-30T23:33:09.057Z,71.31
2023-06-30T23:35:36.767Z,71.20
2023-06-30T23:38:04.850Z,71.38
2023-06-30T23:40:32.554Z,71.68
2023-06-30T23:43:01.092Z,71.75
2023-06-30T23:45:28.737Z,71.78
2023-06-30T23:47:56.641Z,72.06
2023-06-30T23:50:24.298Z,71.98
2023-06-30T23:52:51.982Z,71.97
2023-06-30T23:55:22.272Z,72.08
2023-06-30T23:57:51.371Z,72.18
